Flight Track Log - Related Links

Times and Time Zones

All times are in EDT time to prevent confusion due to time zone crossing. See the UAL270 flight status page for this flight to view local times or setup timezone preferences in your user account.

Time Position Orientation Groundspeed Altitude Reporting Facility
EDT Latitude Longitude Course Direction KTS MPH feet Rate Location/Type
Mon 01:49:55 PM 39.6333 -104.8500 317° Northwest 168 193 6,900  Level Denver TRACON
Mon 01:51:00 PM 39.6920 -104.9904 299° West  Level Estimated
Mon 01:55:00 PM 40.1684 -105.4673 317° Northwest  Level Estimated
Mon 01:58:00 PM 40.0667 -105.9037 298° West  Level Estimated
Mon 01:59:00 PM 40.1197 -106.0350 298° West  Level Estimated
Mon 02:00:00 PM 40.1725 -106.1665 298° West  Level Estimated
Mon 02:01:00 PM 40.2251 -106.2982 298° West  Level Estimated
Mon 02:02:00 PM 40.2776 -106.4301 298° West  Level Estimated
Mon 02:03:00 PM 40.3300 -106.5622 298° West  Level Estimated
Mon 02:04:00 PM 40.3822 -106.6945 297° West  Level Estimated
Mon 02:05:00 PM 40.4342 -106.8270 297° West  Level Estimated
Mon 02:06:00 PM 40.4861 -106.9597 297° West  Level Estimated
Mon 02:07:00 PM 40.5378 -107.0926 297° West  Level Estimated
Mon 02:08:00 PM 40.5894 -107.2258 297° West  Level Estimated
Mon 02:09:00 PM 40.6409 -107.3591 297° West  Level Estimated
Mon 02:10:00 PM 40.6922 -107.4926 297° West  Level Estimated
Mon 02:11:00 PM 40.7433 -107.6264 297° West  Level Estimated
Mon 02:12:00 PM 40.7943 -107.7603 297° West  Level Estimated
Mon 02:13:00 PM 40.8451 -107.8945 297° West  Level Estimated
Mon 02:14:00 PM 40.8958 -108.0288 297° West  Level Estimated
Mon 02:15:00 PM 40.9463 -108.1634 296° West  Level Estimated
Mon 02:16:00 PM 40.9966 -108.2982 296° West  Level Estimated
Mon 02:17:00 PM 41.0468 -108.4332 296° West  Level Estimated
Mon 02:18:00 PM 41.0969 -108.5683 296° West  Level Estimated
Mon 02:19:00 PM 41.1468 -108.7037 296° West  Level Estimated
Mon 02:20:00 PM 41.1965 -108.8393 296° West  Level Estimated
Mon 02:21:00 PM 41.2460 -108.9751 296° West  Level Estimated
Mon 02:22:00 PM 41.2954 -109.1111 296° West  Level Estimated
Mon 02:23:00 PM 41.3447 -109.2473 296° West  Level Estimated
Mon 02:24:00 PM 41.3937 -109.3837 296° West  Level Estimated
Mon 02:25:00 PM 41.4427 -109.5204 296° West  Level Estimated
Mon 02:26:00 PM 41.4914 -109.6572 295° West  Level Estimated
Mon 02:27:00 PM 41.5400 -109.7942 295° West  Level Estimated
Mon 02:28:00 PM 41.5885 -109.9315 295° West  Level Estimated
Mon 02:29:00 PM 41.6367 -110.0689 295° West  Level Estimated
Mon 02:30:00 PM 41.6848 -110.2066 295° West  Level Estimated
Mon 02:31:00 PM 41.7328 -110.3444 295° West  Level Estimated
Mon 02:32:00 PM 41.7806 -110.4825 295° West  Level Estimated
Mon 02:33:00 PM 41.8282 -110.6207 295° West  Level Estimated
Mon 02:34:00 PM 41.8756 -110.7592 295° West  Level Estimated
Mon 02:35:00 PM 41.9229 -110.8979 295° West  Level Estimated
Mon 02:36:00 PM 41.9700 -111.0368 295° West  Level Estimated
Mon 02:37:00 PM 42.0169 -111.1759 294° West  Level Estimated
Mon 02:38:00 PM 42.0637 -111.3151 294° West  Level Estimated
Mon 02:39:00 PM 42.1103 -111.4547 294° West  Level Estimated
Mon 02:40:00 PM 42.1568 -111.5944 294° West  Level Estimated
Mon 02:41:00 PM 42.2030 -111.7343 294° West  Level Estimated
Mon 02:42:00 PM 42.2491 -111.8744 294° West  Level Estimated
Mon 02:43:00 PM 42.2951 -112.0147 294° West  Level Estimated
Mon 02:44:00 PM 42.3408 -112.1552 294° West  Level Estimated
Mon 02:45:00 PM 42.3864 -112.2959 294° West  Level Estimated
Mon 02:46:00 PM 42.4318 -112.4369 294° West  Level Estimated
Mon 02:47:00 PM 42.4770 -112.5780 294° West  Level Estimated
Mon 02:48:00 PM 42.5221 -112.7193 293° West  Level Estimated
Mon 02:49:00 PM 42.5670 -112.8609 293° West  Level Estimated
Mon 02:50:00 PM 42.6117 -113.0026 293° West  Level Estimated
Mon 02:51:00 PM 42.6562 -113.1446 293° West  Level Estimated
Mon 02:52:00 PM 42.7006 -113.2867 293° West  Level Estimated
Mon 02:53:00 PM 42.7448 -113.4291 293° West  Level Estimated
Mon 02:54:00 PM 42.7888 -113.5716 293° West  Level Estimated
Mon 02:55:00 PM 42.8326 -113.7144 293° West  Level Estimated
Mon 02:56:00 PM 42.8763 -113.8574 293° West  Level Estimated
Mon 02:57:00 PM 42.9198 -114.0005 293° West  Level Estimated
Mon 02:58:00 PM 42.9631 -114.1439 292° West  Level Estimated
Mon 02:59:00 PM 43.0062 -114.2875 292° West  Level Estimated
Mon 03:00:00 PM 43.0491 -114.4312 292° West  Level Estimated
Mon 03:01:00 PM 43.0919 -114.5752 292° West  Level Estimated
Mon 03:02:00 PM 43.1345 -114.7194 292° West  Level Estimated
Mon 03:03:00 PM 43.1769 -114.8637 292° West  Level Estimated
Mon 03:04:00 PM 43.2191 -115.0083 292° West  Level Estimated
Mon 03:05:00 PM 43.2612 -115.1531 292° West  Level Estimated
Mon 03:06:00 PM 43.3030 -115.2980 292° West  Level Estimated
Mon 03:07:00 PM 43.3447 -115.4432 292° West  Level Estimated
Mon 03:08:00 PM 43.3862 -115.5886 291° West  Level Estimated
Mon 03:09:00 PM 43.4275 -115.7342 291° West  Level Estimated
Mon 03:10:00 PM 43.4686 -115.8799 291° West  Level Estimated
Mon 03:11:00 PM 43.5095 -116.0259 291° West  Level Estimated
Mon 03:12:00 PM 43.5503 -116.1721 291° West  Level Estimated
Mon 03:13:00 PM 43.5644 -116.2229 291° West  Level Estimated
Mon 03:14:00 PM 43.5644 -116.2229 324° Northwest  Level Estimated
Mon 03:15:00 PM 43.5644 -116.2229 324° Northwest  Level Estimated
Mon 03:16:00 PM 43.5644 -116.2229 324° Northwest  Level Estimated
Mon 03:17:00 PM 43.5644 -116.2229 324° Northwest  Level Estimated
Mon 03:18:00 PM 43.5644 -116.2229 324° Northwest  Level Estimated
Mon 03:19:00 PM 43.5644 -116.2229 324° Northwest  Level Estimated
Mon 03:20:00 PM 43.5644 -116.2229 324° Northwest  Level Estimated
Mon 03:21:00 PM 43.5644 -116.2229 324° Northwest  Level Estimated
Mon 03:22:00 PM 43.5644 -116.2229 324° Northwest  Level Estimated
Mon 03:23:00 PM 43.5644 -116.2229 324° Northwest  Level Estimated
Mon 03:24:00 PM 43.5644 -116.2229 324° Northwest  Level Estimated
Mon 03:25:00 PM 43.5644 -116.2229 324° Northwest  Level Estimated
Mon 03:26:00 PM 43.5644 -116.2229 324° Northwest  Level Estimated
Mon 03:27:00 PM 43.5644 -116.2229 324° Northwest  Level Estimated
Mon 03:28:00 PM 43.5644 -116.2229 324° Northwest  Level Estimated
Mon 03:29:00 PM 43.5644 -116.2229 324° Northwest  Level Estimated
Mon 03:30:00 PM 43.5644 -116.2229 324° Northwest  Level Estimated
Mon 03:31:00 PM 43.5644 -116.2229 324° Northwest  Level Estimated
Mon 03:32:00 PM 43.5644 -116.2229 324° Northwest  Level Estimated
Mon 03:33:00 PM 43.5644 -116.2229 324° Northwest  Level Estimated
Mon 03:34:00 PM 43.5644 -116.2229 324° Northwest  Level Estimated

Login

Don't have an account? Register now (free) for customized features, flight alerts, and more!